sensor_id;sensor_type;location;lat;lon;timestamp;pressure;altitude;pressure_sealevel;temperature;humidity
36664;BME280;53333;51.976;20.144;2023-03-04T00:00:09;99998.97;;;1.29;54.12
36664;BME280;53333;51.976;20.144;2023-03-04T00:02:42;99998.13;;;1.28;54.15
36664;BME280;53333;51.976;20.144;2023-03-04T00:05:16;99991.09;;;1.29;54.09
36664;BME280;53333;51.976;20.144;2023-03-04T00:07:49;99998.09;;;1.30;54.07
36664;BME280;53333;51.976;20.144;2023-03-04T00:10:22;99993.69;;;1.30;54.06
36664;BME280;53333;51.976;20.144;2023-03-04T00:12:54;99995.44;;;1.31;54.07
36664;BME280;53333;51.976;20.144;2023-03-04T00:15:27;99997.16;;;1.34;54.24
36664;BME280;53333;51.976;20.144;2023-03-04T00:18:00;99993.69;;;1.32;54.07
36664;BME280;53333;51.976;20.144;2023-03-04T00:20:34;99986.66;;;1.32;54.10
36664;BME280;53333;51.976;20.144;2023-03-04T00:23:07;99993.66;;;1.33;54.19
36664;BME280;53333;51.976;20.144;2023-03-04T00:25:40;99986.63;;;1.34;54.10
36664;BME280;53333;51.976;20.144;2023-03-04T00:28:14;99991.03;;;1.33;54.14
36664;BME280;53333;51.976;20.144;2023-03-04T00:30:46;99988.41;;;1.33;54.15
36664;BME280;53333;51.976;20.144;2023-03-04T00:33:19;99977.81;;;1.36;54.20
36664;BME280;53333;51.976;20.144;2023-03-04T00:35:53;99973.44;;;1.35;54.19
36664;BME280;53333;51.976;20.144;2023-03-04T00:38:26;99972.59;;;1.35;54.16
36664;BME280;53333;51.976;20.144;2023-03-04T00:40:59;99976.09;;;1.34;54.16
36664;BME280;53333;51.976;20.144;2023-03-04T00:43:32;99967.34;;;1.32;54.15
36664;BME280;53333;51.976;20.144;2023-03-04T00:46:05;99972.63;;;1.32;54.31
36664;BME280;53333;51.976;20.144;2023-03-04T00:48:37;99962.13;;;1.30;54.22
36664;BME280;53333;51.976;20.144;2023-03-04T00:51:11;99956.88;;;1.29;54.35
36664;BME280;53333;51.976;20.144;2023-03-04T00:53:45;99953.41;;;1.25;54.46
36664;BME280;53333;51.976;20.144;2023-03-04T00:56:18;99941.16;;;1.24;54.43
36664;BME280;53333;51.976;20.144;2023-03-04T00:58:51;99940.31;;;1.20;54.55
36664;BME280;53333;51.976;20.144;2023-03-04T01:01:24;99940.34;;;1.19;54.64
36664;BME280;53333;51.976;20.144;2023-03-04T01:03:56;99931.59;;;1.18;54.62
36664;BME280;53333;51.976;20.144;2023-03-04T01:06:31;99921.94;;;1.19;54.71
36664;BME280;53333;51.976;20.144;2023-03-04T01:09:04;99921.03;;;1.20;54.65
36664;BME280;53333;51.976;20.144;2023-03-04T01:11:37;99910.53;;;1.18;54.57
36664;BME280;53333;51.976;20.144;2023-03-04T01:14:09;99908.78;;;1.17;54.63
36664;BME280;53333;51.976;20.144;2023-03-04T01:16:42;99914.94;;;1.16;54.68
36664;BME280;53333;51.976;20.144;2023-03-04T01:19:15;99896.56;;;1.12;54.80
36664;BME280;53333;51.976;20.144;2023-03-04T01:21:49;99897.53;;;1.07;54.79
36664;BME280;53333;51.976;20.144;2023-03-04T01:24:22;99891.44;;;1.04;54.87
36664;BME280;53333;51.976;20.144;2023-03-04T01:26:55;99893.22;;;1.02;54.84
36664;BME280;53333;51.976;20.144;2023-03-04T01:29:28;99885.34;;;1.00;54.92
36664;BME280;53333;51.976;20.144;2023-03-04T01:32:01;99897.59;;;1.01;54.89
36664;BME280;53333;51.976;20.144;2023-03-04T01:34:33;99883.59;;;1.01;54.93
36664;BME280;53333;51.976;20.144;2023-03-04T01:37:10;99877.41;;;1.03;54.87
36664;BME280;53333;51.976;20.144;2023-03-04T01:39:44;99878.28;;;1.05;54.94
36664;BME280;53333;51.976;20.144;2023-03-04T01:42:17;99867.69;;;1.08;54.88
36664;BME280;53333;51.976;20.144;2023-03-04T01:44:51;99870.25;;;1.12;54.90
36664;BME280;53333;51.976;20.144;2023-03-04T01:47:24;99859.69;;;1.15;54.83
36664;BME280;53333;51.976;20.144;2023-03-04T01:49:59;99856.19;;;1.16;54.91
36664;BME280;53333;51.976;20.144;2023-03-04T01:52:35;99857.94;;;1.17;54.81
36664;BME280;53333;51.976;20.144;2023-03-04T01:55:10;99850.03;;;1.17;54.88
36664;BME280;53333;51.976;20.144;2023-03-04T01:57:46;99847.38;;;1.20;54.87
36664;BME280;53333;51.976;20.144;2023-03-04T02:00:21;99840.28;;;1.23;54.81
36664;BME280;53333;51.976;20.144;2023-03-04T02:02:56;99820.03;;;1.27;54.80
36664;BME280;53333;51.976;20.144;2023-03-04T02:05:29;99816.50;;;1.30;54.84
36664;BME280;53333;51.976;20.144;2023-03-04T02:08:04;99790.19;;;1.30;54.88
36664;BME280;53333;51.976;20.144;2023-03-04T02:10:41;99784.84;;;1.34;54.84
36664;BME280;53333;51.976;20.144;2023-03-04T02:13:14;99776.00;;;1.37;54.78
36664;BME280;53333;51.976;20.144;2023-03-04T02:15:47;99778.56;;;1.41;54.66
36664;BME280;53333;51.976;20.144;2023-03-04T02:18:21;99775.03;;;1.44;54.67
36664;BME280;53333;51.976;20.144;2023-03-04T02:20:57;99760.91;;;1.48;54.70
36664;BME280;53333;51.976;20.144;2023-03-04T02:23:36;99750.34;;;1.50;54.65
36664;BME280;53333;51.976;20.144;2023-03-04T02:26:14;99728.38;;;1.52;54.67
36664;BME280;53333;51.976;20.144;2023-03-04T02:28:50;99729.16;;;1.56;54.64
36664;BME280;53333;51.976;20.144;2023-03-04T02:31:24;99720.34;;;1.58;54.67
36664;BME280;53333;51.976;20.144;2023-03-04T02:34:00;99723.78;;;1.62;54.66
36664;BME280;53333;51.976;20.144;2023-03-04T02:36:33;99718.47;;;1.65;54.71
36664;BME280;53333;51.976;20.144;2023-03-04T02:39:09;99715.81;;;1.67;54.62
36664;BME280;53333;51.976;20.144;2023-03-04T02:41:44;99715.72;;;1.71;54.67
36664;BME280;53333;51.976;20.144;2023-03-04T02:44:18;99704.28;;;1.72;54.63
36664;BME280;53333;51.976;20.144;2023-03-04T02:46:52;99692.81;;;1.75;54.68
36664;BME280;53333;51.976;20.144;2023-03-04T02:49:26;99690.16;;;1.76;54.67
36664;BME280;53333;51.976;20.144;2023-03-04T02:52:01;99679.56;;;1.79;54.70
36664;BME280;53333;51.976;20.144;2023-03-04T02:54:36;99675.13;;;1.81;54.88
36664;BME280;53333;51.976;20.144;2023-03-04T02:57:11;99680.34;;;1.83;54.77
36664;BME280;53333;51.976;20.144;2023-03-04T02:59:47;99671.56;;;1.84;54.69
36664;BME280;53333;51.976;20.144;2023-03-04T03:02:24;99669.72;;;1.88;54.70
36664;BME280;53333;51.976;20.144;2023-03-04T03:04:58;99676.72;;;1.90;54.65
36664;BME280;53333;51.976;20.144;2023-03-04T03:07:32;99686.28;;;1.94;54.66
36664;BME280;53333;51.976;20.144;2023-03-04T03:10:05;99687.13;;;1.96;54.63
36664;BME280;53333;51.976;20.144;2023-03-04T03:12:41;99687.13;;;1.96;54.71
36664;BME280;53333;51.976;20.144;2023-03-04T03:15:15;99695.00;;;1.98;54.70
36664;BME280;53333;51.976;20.144;2023-03-04T03:17:48;99691.41;;;2.00;54.68
36664;BME280;53333;51.976;20.144;2023-03-04T03:20:21;99703.66;;;2.03;54.68
36664;BME280;53333;51.976;20.144;2023-03-04T03:22:54;99701.00;;;2.05;54.63
36664;BME280;53333;51.976;20.144;2023-03-04T03:25:26;99706.28;;;2.05;54.72
36664;BME280;53333;51.976;20.144;2023-03-04T03:28:01;99709.72;;;2.07;54.69
36664;BME280;53333;51.976;20.144;2023-03-04T03:30:33;99710.59;;;2.07;54.70
36664;BME280;53333;51.976;20.144;2023-03-04T03:33:09;99709.69;;;2.08;54.63
36664;BME280;53333;51.976;20.144;2023-03-04T03:35:41;99705.25;;;2.10;54.72
36664;BME280;53333;51.976;20.144;2023-03-04T03:38:15;99701.69;;;2.13;54.70
36664;BME280;53333;51.976;20.144;2023-03-04T03:40:48;99696.44;;;2.13;54.79
36664;BME280;53333;51.976;20.144;2023-03-04T03:43:22;99696.41;;;2.14;54.70
36664;BME280;53333;51.976;20.144;2023-03-04T03:45:55;99691.97;;;2.15;54.82
36664;BME280;53333;51.976;20.144;2023-03-04T03:48:28;99695.50;;;2.15;54.82
36664;BME280;53333;51.976;20.144;2023-03-04T03:51:00;99687.59;;;2.15;54.79
36664;BME280;53333;51.976;20.144;2023-03-04T03:53:33;99692.88;;;2.15;54.82
36664;BME280;53333;51.976;20.144;2023-03-04T03:56:06;99694.63;;;2.15;54.92
36664;BME280;53333;51.976;20.144;2023-03-04T03:58:40;99698.16;;;2.15;54.90
36664;BME280;53333;51.976;20.144;2023-03-04T04:01:13;99694.59;;;2.16;54.91
36664;BME280;53333;51.976;20.144;2023-03-04T04:03:46;99681.38;;;2.18;54.69
36664;BME280;53333;51.976;20.144;2023-03-04T04:06:18;99685.75;;;2.19;54.81
36664;BME280;53333;51.976;20.144;2023-03-04T04:08:51;99687.50;;;2.18;54.94
36664;BME280;53333;51.976;20.144;2023-03-04T04:11:24;99684.88;;;2.18;54.95
36664;BME280;53333;51.976;20.144;2023-03-04T04:13:58;99691.09;;;2.16;54.96
36664;BME280;53333;51.976;20.144;2023-03-04T04:16:31;99682.25;;;2.17;55.04
36664;BME280;53333;51.976;20.144;2023-03-04T04:19:04;99695.41;;;2.18;54.97
36664;BME280;53333;51.976;20.144;2023-03-04T04:21:36;99687.47;;;2.20;54.95
36664;BME280;53333;51.976;20.144;2023-03-04T04:24:09;99686.59;;;2.21;55.04
36664;BME280;53333;51.976;20.144;2023-03-04T04:26:42;99692.72;;;2.22;55.02
36664;BME280;53333;51.976;20.144;2023-03-04T04:29:16;99683.88;;;2.24;55.03
36664;BME280;53333;51.976;20.144;2023-03-04T04:31:48;99681.22;;;2.26;54.98
36664;BME280;53333;51.976;20.144;2023-03-04T04:34:21;99683.84;;;2.26;54.86
36664;BME280;53333;51.976;20.144;2023-03-04T04:36:54;99682.09;;;2.25;54.98
36664;BME280;53333;51.976;20.144;2023-03-04T04:39:27;99685.66;;;2.24;54.99
36664;BME280;53333;51.976;20.144;2023-03-04T04:41:59;99680.34;;;2.25;55.11
36664;BME280;53333;51.976;20.144;2023-03-04T04:44:34;99675.91;;;2.27;55.08
36664;BME280;53333;51.976;20.144;2023-03-04T04:47:09;99680.31;;;2.27;54.81
36664;BME280;53333;51.976;20.144;2023-03-04T04:49:42;99673.25;;;2.29;54.94
36664;BME280;53333;51.976;20.144;2023-03-04T04:52:14;99682.91;;;2.30;55.02
36664;BME280;53333;51.976;20.144;2023-03-04T04:54:47;99673.25;;;2.29;54.95
36664;BME280;53333;51.976;20.144;2023-03-04T04:57:20;99662.72;;;2.27;55.07
36664;BME280;53333;51.976;20.144;2023-03-04T04:59:54;99671.47;;;2.29;55.04
36664;BME280;53333;51.976;20.144;2023-03-04T05:02:27;99674.09;;;2.29;55.00
36664;BME280;53333;51.976;20.144;2023-03-04T05:05:00;99675.00;;;2.28;54.92
36664;BME280;53333;51.976;20.144;2023-03-04T05:07:33;99682.03;;;2.28;55.06
36664;BME280;53333;51.976;20.144;2023-03-04T05:10:06;99659.19;;;2.28;55.06
36664;BME280;53333;51.976;20.144;2023-03-04T05:12:39;99653.97;;;2.27;55.07
36664;BME280;53333;51.976;20.144;2023-03-04T05:15:13;99667.09;;;2.28;55.10
36664;BME280;53333;51.976;20.144;2023-03-04T05:17:46;99653.03;;;2.28;55.06
36664;BME280;53333;51.976;20.144;2023-03-04T05:20:18;99659.19;;;2.28;55.11
36664;BME280;53333;51.976;20.144;2023-03-04T05:22:51;99659.19;;;2.28;55.19
36664;BME280;53333;51.976;20.144;2023-03-04T05:25:24;99655.66;;;2.29;55.11
36664;BME280;53333;51.976;20.144;2023-03-04T05:27:57;99660.91;;;2.29;55.02
36664;BME280;53333;51.976;20.144;2023-03-04T05:30:33;99660.88;;;2.31;55.11
36664;BME280;53333;51.976;20.144;2023-03-04T05:33:06;99666.16;;;2.31;55.09
36664;BME280;53333;51.976;20.144;2023-03-04T05:35:39;99662.66;;;2.30;55.20
36664;BME280;53333;51.976;20.144;2023-03-04T05:38:13;99660.88;;;2.31;55.22
36664;BME280;53333;51.976;20.144;2023-03-04T05:40:46;99672.25;;;2.33;55.20
36664;BME280;53333;51.976;20.144;2023-03-04T05:43:19;99667.88;;;2.33;55.26
36664;BME280;53333;51.976;20.144;2023-03-04T05:45:55;99669.53;;;2.36;55.05
36664;BME280;53333;51.976;20.144;2023-03-04T05:48:28;99670.47;;;2.35;55.14
36664;BME280;53333;51.976;20.144;2023-03-04T05:51:01;99669.56;;;2.34;55.15
36664;BME280;53333;51.976;20.144;2023-03-04T05:53:33;99673.06;;;2.36;55.28
36664;BME280;53333;51.976;20.144;2023-03-04T05:56:07;99660.75;;;2.37;55.42
36664;BME280;53333;51.976;20.144;2023-03-04T05:58:40;99665.94;;;2.40;55.22
36664;BME280;53333;51.976;20.144;2023-03-04T06:01:14;99661.56;;;2.39;55.27
36664;BME280;53333;51.976;20.144;2023-03-04T06:03:47;99665.09;;;2.40;55.13
36664;BME280;53333;51.976;20.144;2023-03-04T06:06:20;99658.06;;;2.39;55.13
36664;BME280;53333;51.976;20.144;2023-03-04T06:08:53;99644.94;;;2.37;55.17
36664;BME280;53333;51.976;20.144;2023-03-04T06:11:26;99654.53;;;2.40;55.16
36664;BME280;53333;51.976;20.144;2023-03-04T06:13:58;99653.66;;;2.39;55.20
36664;BME280;53333;51.976;20.144;2023-03-04T06:16:32;99642.19;;;2.42;55.12
36664;BME280;53333;51.976;20.144;2023-03-04T06:19:05;99636.06;;;2.41;55.27
36664;BME280;53333;51.976;20.144;2023-03-04T06:21:38;99634.28;;;2.42;55.29
36664;BME280;53333;51.976;20.144;2023-03-04T06:24:11;99646.59;;;2.41;55.29
36664;BME280;53333;51.976;20.144;2023-03-04T06:26:43;99642.22;;;2.40;55.23
36664;BME280;53333;51.976;20.144;2023-03-04T06:29:16;99647.47;;;2.42;55.35
36664;BME280;53333;51.976;20.144;2023-03-04T06:31:50;99649.22;;;2.43;55.25
36664;BME280;53333;51.976;20.144;2023-03-04T06:34:23;99652.69;;;2.43;55.26
36664;BME280;53333;51.976;20.144;2023-03-04T06:36:56;99655.31;;;2.45;55.30
36664;BME280;53333;51.976;20.144;2023-03-04T06:39:28;99651.78;;;2.46;55.20
36664;BME280;53333;51.976;20.144;2023-03-04T06:42:01;99650.81;;;2.48;55.30
36664;BME280;53333;51.976;20.144;2023-03-04T06:44:34;99652.56;;;2.49;55.31
36664;BME280;53333;51.976;20.144;2023-03-04T06:47:08;99639.38;;;2.49;55.22
36664;BME280;53333;51.976;20.144;2023-03-04T06:49:41;99656.06;;;2.50;55.25
36664;BME280;53333;51.976;20.144;2023-03-04T06:52:14;99639.31;;;2.52;55.26
36664;BME280;53333;51.976;20.144;2023-03-04T06:54:46;99641.00;;;2.53;55.15
36664;BME280;53333;51.976;20.144;2023-03-04T06:57:19;99644.56;;;2.52;55.27
36664;BME280;53333;51.976;20.144;2023-03-04T06:59:52;99651.56;;;2.53;55.15
36664;BME280;53333;51.976;20.144;2023-03-04T07:02:26;99656.81;;;2.55;55.21
36664;BME280;53333;51.976;20.144;2023-03-04T07:04:59;99649.75;;;2.57;55.20
36664;BME280;53333;51.976;20.144;2023-03-04T07:07:31;99646.16;;;2.60;55.17
36664;BME280;53333;51.976;20.144;2023-03-04T07:10:04;99642.63;;;2.61;55.09
36664;BME280;53333;51.976;20.144;2023-03-04T07:12:37;99653.16;;;2.61;55.16
36664;BME280;53333;51.976;20.144;2023-03-04T07:15:10;99645.25;;;2.61;55.21
36664;BME280;53333;51.976;20.144;2023-03-04T07:17:44;99650.47;;;2.64;55.12
36664;BME280;53333;51.976;20.144;2023-03-04T07:20:18;99647.72;;;2.68;55.11
36664;BME280;53333;51.976;20.144;2023-03-04T07:22:51;99645.84;;;2.72;55.13
36664;BME280;53333;51.976;20.144;2023-03-04T07:25:24;99649.31;;;2.74;55.11
36664;BME280;53333;51.976;20.144;2023-03-04T07:27:57;99636.16;;;2.72;55.08
36664;BME280;53333;51.976;20.144;2023-03-04T07:30:29;99630.88;;;2.72;55.20
36664;BME280;53333;51.976;20.144;2023-03-04T07:33:03;99627.34;;;2.73;55.11
36664;BME280;53333;51.976;20.144;2023-03-04T07:35:36;99630.03;;;2.72;55.28
36664;BME280;53333;51.976;20.144;2023-03-04T07:38:09;99624.75;;;2.72;55.22
36664;BME280;53333;51.976;20.144;2023-03-04T07:40:42;99623.81;;;2.75;55.19
36664;BME280;53333;51.976;20.144;2023-03-04T07:43:15;99623.78;;;2.76;55.20
36664;BME280;53333;51.976;20.144;2023-03-04T07:45:47;99618.50;;;2.76;55.21
36664;BME280;53333;51.976;20.144;2023-03-04T07:48:21;99622.91;;;2.76;55.11
36664;BME280;53333;51.976;20.144;2023-03-04T07:51:01;99619.38;;;2.77;55.19
36664;BME280;53333;51.976;20.144;2023-03-04T07:53:34;99615.72;;;2.81;55.21
36664;BME280;53333;51.976;20.144;2023-03-04T07:56:09;99606.91;;;2.82;55.23
36664;BME280;53333;51.976;20.144;2023-03-04T07:58:43;99603.34;;;2.84;55.11
36664;BME280;53333;51.976;20.144;2023-03-04T08:01:17;99610.28;;;2.87;55.16
36664;BME280;53333;51.976;20.144;2023-03-04T08:03:52;99607.69;;;2.85;55.12
36664;BME280;53333;51.976;20.144;2023-03-04T08:06:25;99604.16;;;2.86;55.19
36664;BME280;53333;51.976;20.144;2023-03-04T08:08:58;99607.66;;;2.87;55.16
36664;BME280;53333;51.976;20.144;2023-03-04T08:11:32;99611.16;;;2.89;55.24
36664;BME280;53333;51.976;20.144;2023-03-04T08:14:05;99607.63;;;2.88;55.15
36664;BME280;53333;51.976;20.144;2023-03-04T08:16:38;99608.53;;;2.87;55.21
36664;BME280;53333;51.976;20.144;2023-03-04T08:19:12;99598.84;;;2.88;55.23
36664;BME280;53333;51.976;20.144;2023-03-04T08:21:45;99602.19;;;2.95;55.29
36664;BME280;53333;51.976;20.144;2023-03-04T08:24:18;99604.75;;;2.98;55.20
36664;BME280;53333;51.976;20.144;2023-03-04T08:26:51;99607.31;;;3.01;55.21
36664;BME280;53333;51.976;20.144;2023-03-04T08:29:24;99598.50;;;3.02;55.09
36664;BME280;53333;51.976;20.144;2023-03-04T08:31:57;99598.44;;;3.03;55.12
36664;BME280;53333;51.976;20.144;2023-03-04T08:34:31;99601.06;;;3.05;55.01
36664;BME280;53333;51.976;20.144;2023-03-04T08:37:04;99592.25;;;3.04;55.13
36664;BME280;53333;51.976;20.144;2023-03-04T08:39:37;99591.34;;;3.05;55.20
36664;BME280;53333;51.976;20.144;2023-03-04T08:42:10;99587.81;;;3.06;55.16
36664;BME280;53333;51.976;20.144;2023-03-04T08:44:43;99598.28;;;3.09;55.27
36664;BME280;53333;51.976;20.144;2023-03-04T08:47:16;99586.84;;;3.09;55.18
36664;BME280;53333;51.976;20.144;2023-03-04T08:49:50;99584.25;;;3.07;55.12
36664;BME280;53333;51.976;20.144;2023-03-04T08:52:22;99592.16;;;3.07;55.27
36664;BME280;53333;51.976;20.144;2023-03-04T08:54:55;99586.84;;;3.09;55.20
36664;BME280;53333;51.976;20.144;2023-03-04T08:57:28;99587.72;;;3.09;55.17
36664;BME280;53333;51.976;20.144;2023-03-04T09:00:01;99588.59;;;3.10;55.27
36664;BME280;53333;51.976;20.144;2023-03-04T09:02:34;99581.50;;;3.12;55.22
36664;BME280;53333;51.976;20.144;2023-03-04T09:05:08;99582.25;;;3.16;55.15
36664;BME280;53333;51.976;20.144;2023-03-04T09:07:41;99582.19;;;3.19;55.16
36664;BME280;53333;51.976;20.144;2023-03-04T09:10:14;99571.56;;;3.20;55.15
36664;BME280;53333;51.976;20.144;2023-03-04T09:12:47;99582.94;;;3.24;55.07
36664;BME280;53333;51.976;20.144;2023-03-04T09:15:20;99574.13;;;3.23;55.24
36664;BME280;53333;51.976;20.144;2023-03-04T09:17:53;99571.44;;;3.25;55.19
36664;BME280;53333;51.976;20.144;2023-03-04T09:20:27;99569.75;;;3.24;55.20
36664;BME280;53333;51.976;20.144;2023-03-04T09:23:00;99569.66;;;3.25;55.21
36664;BME280;53333;51.976;20.144;2023-03-04T09:25:32;99562.59;;;3.27;55.19
36664;BME280;53333;51.976;20.144;2023-03-04T09:28:05;99563.38;;;3.31;55.13
36664;BME280;53333;51.976;20.144;2023-03-04T09:30:38;99560.63;;;3.34;55.16
36664;BME280;53333;51.976;20.144;2023-03-04T09:33:11;99552.63;;;3.37;55.13
36664;BME280;53333;51.976;20.144;2023-03-04T09:35:46;99548.13;;;3.41;55.04
36664;BME280;53333;51.976;20.144;2023-03-04T09:38:20;99553.22;;;3.47;55.08
36664;BME280;53333;51.976;20.144;2023-03-04T09:40:55;99546.88;;;3.54;55.00
36664;BME280;53333;51.976;20.144;2023-03-04T09:43:28;99531.78;;;3.58;54.91
36664;BME280;53333;51.976;20.144;2023-03-04T09:46:03;99537.75;;;3.64;54.80
36664;BME280;53333;51.976;20.144;2023-03-04T09:48:38;99532.31;;;3.69;54.79
36664;BME280;53333;51.976;20.144;2023-03-04T09:51:20;99523.38;;;3.73;54.85
36664;BME280;53333;51.976;20.144;2023-03-04T09:53:58;99519.75;;;3.77;54.84
36664;BME280;53333;51.976;20.144;2023-03-04T09:56:38;99521.47;;;3.78;54.94
36664;BME280;53333;51.976;20.144;2023-03-04T09:59:14;99523.16;;;3.81;54.91
36664;BME280;53333;51.976;20.144;2023-03-04T10:01:48;99521.28;;;3.85;54.82
36664;BME280;53333;51.976;20.144;2023-03-04T10:04:25;99522.09;;;3.87;54.81
36664;BME280;53333;51.976;20.144;2023-03-04T10:07:02;99520.41;;;3.84;54.78
36664;BME280;53333;51.976;20.144;2023-03-04T10:09:40;99518.66;;;3.85;54.94
36664;BME280;53333;51.976;20.144;2023-03-04T10:12:16;99514.28;;;3.84;55.04
36664;BME280;53333;51.976;20.144;2023-03-04T10:14:51;99506.34;;;3.84;55.13
36664;BME280;53333;51.976;20.144;2023-03-04T10:17:32;99510.72;;;3.85;55.08
36664;BME280;53333;51.976;20.144;2023-03-04T10:20:14;99500.97;;;3.87;55.06
36664;BME280;53333;51.976;20.144;2023-03-04T10:22:51;99507.97;;;3.88;55.02
36664;BME280;53333;51.976;20.144;2023-03-04T10:25:25;99498.19;;;3.91;54.98
36664;BME280;53333;51.976;20.144;2023-03-04T10:27:59;99507.00;;;3.90;55.06
36664;BME280;53333;51.976;20.144;2023-03-04T10:30:37;99489.41;;;3.89;55.11
36664;BME280;53333;51.976;20.144;2023-03-04T10:33:11;99497.34;;;3.89;55.10
36664;BME280;53333;51.976;20.144;2023-03-04T10:35:47;99492.00;;;3.91;55.18
36664;BME280;53333;51.976;20.144;2023-03-04T10:38:22;99494.59;;;3.92;55.13
36664;BME280;53333;51.976;20.144;2023-03-04T10:40:59;99484.78;;;3.97;55.07
36664;BME280;53333;51.976;20.144;2023-03-04T10:43:33;99466.28;;;3.97;55.14
36664;BME280;53333;51.976;20.144;2023-03-04T10:46:05;99463.53;;;4.00;55.05
36664;BME280;53333;51.976;20.144;2023-03-04T10:48:42;99468.59;;;4.07;55.10
36664;BME280;53333;51.976;20.144;2023-03-04T10:51:24;99464.03;;;4.12;54.99
36664;BME280;53333;51.976;20.144;2023-03-04T10:53:59;99469.13;;;4.18;54.89
36664;BME280;53333;51.976;20.144;2023-03-04T10:56:36;99477.81;;;4.22;54.88
36664;BME280;53333;51.976;20.144;2023-03-04T11:02:01;99461.69;;;4.29;54.96
36664;BME280;53333;51.976;20.144;2023-03-04T11:04:42;99464.25;;;4.32;54.77
36664;BME280;53333;51.976;20.144;2023-03-04T11:07:21;99451.91;;;4.31;54.97
36664;BME280;53333;51.976;20.144;2023-03-04T11:09:56;99469.53;;;4.32;54.96
36664;BME280;53333;51.976;20.144;2023-03-04T11:12:38;99459.53;;;4.41;54.89
36664;BME280;53333;51.976;20.144;2023-03-04T11:15:18;99449.66;;;4.46;54.81
36664;BME280;53333;51.976;20.144;2023-03-04T11:17:55;99457.50;;;4.49;54.86
36664;BME280;53333;51.976;20.144;2023-03-04T11:20:29;99454.63;;;4.55;54.88
36664;BME280;53333;51.976;20.144;2023-03-04T11:23:04;99448.31;;;4.59;54.71
36664;BME280;53333;51.976;20.144;2023-03-04T11:25:40;99449.13;;;4.61;54.84
36664;BME280;53333;51.976;20.144;2023-03-04T11:28:14;99456.19;;;4.61;54.85
36664;BME280;53333;51.976;20.144;2023-03-04T11:30:50;99449.25;;;4.58;54.83
36664;BME280;53333;51.976;20.144;2023-03-04T11:33:26;99437.78;;;4.58;54.89
36664;BME280;53333;51.976;20.144;2023-03-04T11:36:07;99450.16;;;4.57;55.10
36664;BME280;53333;51.976;20.144;2023-03-04T11:38:45;99438.75;;;4.55;55.06
36664;BME280;53333;51.976;20.144;2023-03-04T11:41:22;99436.97;;;4.55;55.04
36664;BME280;53333;51.976;20.144;2023-03-04T11:43:57;99433.47;;;4.55;54.98
36664;BME280;53333;51.976;20.144;2023-03-04T11:46:43;99440.41;;;4.58;55.06
36664;BME280;53333;51.976;20.144;2023-03-04T11:49:30;99433.22;;;4.63;55.00
36664;BME280;53333;51.976;20.144;2023-03-04T11:52:12;99433.16;;;4.64;55.01
36664;BME280;53333;51.976;20.144;2023-03-04T11:54:52;99434.00;;;4.65;54.81
36664;BME280;53333;51.976;20.144;2023-03-04T11:57:31;99429.50;;;4.67;54.98
36664;BME280;53333;51.976;20.144;2023-03-04T12:00:23;99423.38;;;4.66;55.05
36664;BME280;53333;51.976;20.144;2023-03-04T12:03:03;99425.06;;;4.67;54.87
36664;BME280;53333;51.976;20.144;2023-03-04T12:05:45;99417.84;;;4.72;54.98
36664;BME280;53333;51.976;20.144;2023-03-04T12:11:09;99408.81;;;4.78;55.01
36664;BME280;53333;51.976;20.144;2023-03-04T12:16:37;99404.31;;;4.80;54.92
36664;BME280;53333;51.976;20.144;2023-03-04T12:19:19;99392.94;;;4.78;54.89
36664;BME280;53333;51.976;20.144;2023-03-04T12:22:11;99400.88;;;4.78;55.05
36664;BME280;53333;51.976;20.144;2023-03-04T12:27:37;99392.19;;;4.75;55.04
36664;BME280;53333;51.976;20.144;2023-03-04T12:30:15;99392.31;;;4.71;55.10
36664;BME280;53333;51.976;20.144;2023-03-04T12:32:55;99391.50;;;4.69;55.15
36664;BME280;53333;51.976;20.144;2023-03-04T12:35:35;99386.97;;;4.73;55.07
36664;BME280;53333;51.976;20.144;2023-03-04T12:38:21;99382.28;;;4.80;55.08
36664;BME280;53333;51.976;20.144;2023-03-04T12:41:02;99381.28;;;4.84;54.97
36664;BME280;53333;51.976;20.144;2023-03-04T12:43:41;99374.94;;;4.88;55.03
36664;BME280;53333;51.976;20.144;2023-03-04T12:46:23;99372.06;;;4.94;55.01
36664;BME280;53333;51.976;20.144;2023-03-04T12:49:13;99372.78;;;4.98;54.91
36664;BME280;53333;51.976;20.144;2023-03-04T12:51:51;99362.97;;;5.01;55.02
36664;BME280;53333;51.976;20.144;2023-03-04T12:54:28;99364.50;;;5.07;54.99
36664;BME280;53333;51.976;20.144;2023-03-04T12:57:03;99364.31;;;5.12;54.85
36664;BME280;53333;51.976;20.144;2023-03-04T12:59:39;99356.28;;;5.15;54.83
36664;BME280;53333;51.976;20.144;2023-03-04T13:02:24;99357.88;;;5.19;54.83
36664;BME280;53333;51.976;20.144;2023-03-04T13:05:06;99363.19;;;5.19;54.83
36664;BME280;53333;51.976;20.144;2023-03-04T13:07:47;99357.00;;;5.18;54.91
36664;BME280;53333;51.976;20.144;2023-03-04T13:10:24;99353.50;;;5.18;54.88
36664;BME280;53333;51.976;20.144;2023-03-04T13:12:57;99356.16;;;5.18;54.91
36664;BME280;53333;51.976;20.144;2023-03-04T13:15:32;99353.50;;;5.18;55.06
36664;BME280;53333;51.976;20.144;2023-03-04T13:21:17;99344.59;;;5.20;55.01
36664;BME280;53333;51.976;20.144;2023-03-04T13:23:53;99348.88;;;5.23;54.93
36664;BME280;53333;51.976;20.144;2023-03-04T13:26:27;99360.41;;;5.22;54.93
36664;BME280;53333;51.976;20.144;2023-03-04T13:29:29;99387.13;;;5.16;55.04
36664;BME280;53333;51.976;20.144;2023-03-04T13:32:08;99411.19;;;5.09;55.10
36664;BME280;53333;51.976;20.144;2023-03-04T13:34:46;99408.09;;;4.98;55.14
36664;BME280;53333;51.976;20.144;2023-03-04T13:37:33;99414.75;;;4.85;55.17
36664;BME280;53333;51.976;20.144;2023-03-04T13:40:28;99419.63;;;4.72;55.41
36664;BME280;53333;51.976;20.144;2023-03-04T13:48:59;99409.63;;;4.31;55.63
36664;BME280;53333;51.976;20.144;2023-03-04T13:51:34;99417.00;;;4.22;55.64
36664;BME280;53333;51.976;20.144;2023-03-04T13:54:13;99418.16;;;4.13;55.83
36664;BME280;53333;51.976;20.144;2023-03-04T13:56:47;99402.47;;;4.08;55.87
36664;BME280;53333;51.976;20.144;2023-03-04T13:59:23;99404.31;;;4.06;55.74